createdAt,value
2023-09-06T00:01:19.928Z,97291.19
2023-09-06T00:03:46.868Z,97291.00
2023-09-06T00:06:13.685Z,97297.41
2023-09-06T00:08:40.414Z,97295.56
2023-09-06T00:11:07.139Z,97299.38
2023-09-06T00:13:35.380Z,97302.81
2023-09-06T00:16:03.429Z,97305.63
2023-09-06T00:18:30.951Z,97306.59
2023-09-06T00:20:58.978Z,97303.84
2023-09-06T00:23:27.143Z,97296.50
2023-09-06T00:25:57.390Z,97295.72
2023-09-06T00:28:26.802Z,97279.22
2023-09-06T00:30:58.739Z,97291.63
2023-09-06T00:33:31.803Z,97278.19
2023-09-06T00:35:59.289Z,97289.38
2023-09-06T00:38:27.383Z,97286.91
2023-09-06T00:40:54.482Z,97263.22
2023-09-06T00:43:21.239Z,97280.00
2023-09-06T00:45:52.164Z,97288.16
2023-09-06T00:48:22.786Z,97287.91
2023-09-06T00:50:52.018Z,97250.13
2023-09-06T00:53:21.450Z,97284.25
2023-09-06T00:55:50.086Z,97273.47
2023-09-06T00:58:19.426Z,97273.72
2023-09-06T01:00:48.439Z,97272.34
2023-09-06T01:03:16.153Z,97274.56
2023-09-06T01:05:48.537Z,97272.97
2023-09-06T01:08:19.914Z,97271.81
2023-09-06T01:10:46.990Z,97268.13
2023-09-06T01:13:13.825Z,97271.00
2023-09-06T01:15:44.816Z,97271.81
2023-09-06T01:18:14.124Z,97276.66
2023-09-06T01:20:54.140Z,97269.31
2023-09-06T01:23:34.822Z,97259.97
2023-09-06T01:26:02.563Z,97267.47
2023-09-06T01:28:29.874Z,97269.22
2023-09-06T01:30:58.009Z,97269.53
2023-09-06T01:33:24.753Z,97269.53
2023-09-06T01:35:51.940Z,97268.06
2023-09-06T01:38:18.819Z,97275.88
2023-09-06T01:40:45.859Z,97271.09
2023-09-06T01:43:13.533Z,97269.72
2023-09-06T01:45:47.123Z,97271.91
2023-09-06T01:48:13.921Z,97269.53
2023-09-06T01:50:42.607Z,97266.88
2023-09-06T01:53:09.324Z,97268.94
2023-09-06T01:55:36.124Z,97265.19
2023-09-06T01:58:05.175Z,97268.72
2023-09-06T02:00:33.228Z,97270.75
2023-09-06T02:03:01.131Z,97260.38
2023-09-06T02:05:27.981Z,97261.97
2023-09-06T02:07:54.674Z,97264.50
2023-09-06T02:10:22.568Z,97261.63
2023-09-06T02:12:49.258Z,97272.03
2023-09-06T02:15:16.301Z,97272.16
2023-09-06T02:17:44.693Z,97269.31
2023-09-06T02:20:18.960Z,97264.84
2023-09-06T02:22:48.591Z,97267.94
2023-09-06T02:25:17.072Z,97243.91
2023-09-06T02:27:43.874Z,97260.03
2023-09-06T02:30:10.900Z,97260.16
2023-09-06T02:32:37.732Z,97245.81
2023-09-06T02:35:04.738Z,97248.44
2023-09-06T02:37:31.472Z,97259.81
2023-09-06T02:39:58.129Z,97239.19
2023-09-06T02:42:25.833Z,97256.06
2023-09-06T02:44:53.188Z,97256.53
2023-09-06T02:47:26.593Z,97253.16
2023-09-06T02:49:57.044Z,97256.28
2023-09-06T02:52:31.629Z,97249.53
2023-09-06T02:54:59.421Z,97256.63
2023-09-06T02:57:27.290Z,97253.53
2023-09-06T02:59:55.056Z,97252.19
2023-09-06T03:02:22.954Z,97249.09
2023-09-06T03:04:58.806Z,97255.72
2023-09-06T03:07:25.988Z,97247.00
2023-09-06T03:09:52.780Z,97248.19
2023-09-06T03:12:20.551Z,97232.88
2023-09-06T03:14:50.931Z,97248.22
2023-09-06T03:17:23.814Z,97252.66
2023-09-06T03:19:54.906Z,97255.44
2023-09-06T03:22:27.230Z,97240.78
2023-09-06T03:24:56.482Z,97249.56
2023-09-06T03:27:23.284Z,97256.00
2023-09-06T03:29:52.253Z,97256.47
2023-09-06T03:32:22.635Z,97261.06
2023-09-06T03:34:50.767Z,97264.00
2023-09-06T03:37:19.946Z,97268.81
2023-09-06T03:39:48.872Z,97264.59
2023-09-06T03:42:16.450Z,97260.59
2023-09-06T03:44:47.742Z,97263.25
2023-09-06T03:47:14.982Z,97264.16
2023-09-06T03:49:42.522Z,97256.81
2023-09-06T03:52:09.232Z,97260.25
2023-09-06T03:54:36.042Z,97262.44
2023-09-06T03:57:04.029Z,97264.63
2023-09-06T03:59:36.404Z,97263.09
2023-09-06T04:02:08.723Z,97265.75
2023-09-06T04:04:35.922Z,97257.44
2023-09-06T04:07:03.990Z,97259.38
2023-09-06T04:09:38.398Z,97274.59
2023-09-06T04:12:08.661Z,97266.25
2023-09-06T04:14:36.948Z,97259.38
2023-09-06T04:17:08.457Z,97271.25
2023-09-06T04:19:36.938Z,97271.25
2023-09-06T04:22:03.973Z,97258.25
2023-09-06T04:24:36.302Z,97272.41
2023-09-06T04:27:05.885Z,97280.97
2023-09-06T04:29:33.563Z,97282.13
2023-09-06T04:32:02.599Z,97279.38
2023-09-06T04:34:29.292Z,97279.50
2023-09-06T04:36:56.038Z,97271.59
2023-09-06T04:39:24.251Z,97279.16
2023-09-06T04:41:50.786Z,97279.59
2023-09-06T04:44:19.054Z,97275.50
2023-09-06T04:46:47.570Z,97280.66
2023-09-06T04:49:14.274Z,97272.88
2023-09-06T04:51:40.720Z,97289.44
2023-09-06T04:54:10.741Z,97279.03
2023-09-06T04:56:37.559Z,97281.88
2023-09-06T04:59:04.507Z,97290.56
2023-09-06T05:01:31.288Z,97285.75
2023-09-06T05:03:58.178Z,97271.81
2023-09-06T05:06:25.082Z,97281.78
2023-09-06T05:08:52.277Z,97286.22
2023-09-06T05:11:22.835Z,97288.53
2023-09-06T05:13:51.135Z,97295.25
2023-09-06T05:16:19.281Z,97300.28
2023-09-06T05:18:49.597Z,97306.41
2023-09-06T05:21:18.544Z,97306.06
2023-09-06T05:23:45.059Z,97308.81
2023-09-06T05:26:12.353Z,97306.56
2023-09-06T05:28:43.860Z,97321.94
2023-09-06T05:31:11.045Z,97317.81
2023-09-06T05:33:40.065Z,97315.88
2023-09-06T05:36:09.911Z,97321.34
2023-09-06T05:38:36.646Z,97330.28
2023-09-06T05:41:04.980Z,97332.09
2023-09-06T05:43:37.726Z,97332.97
2023-09-06T05:46:11.897Z,97336.50
2023-09-06T05:48:49.402Z,97335.97
2023-09-06T05:51:16.162Z,97314.38
2023-09-06T05:53:43.451Z,97317.97
2023-09-06T05:56:10.162Z,97303.41
2023-09-06T05:58:39.173Z,97316.22
2023-09-06T06:01:12.779Z,97301.59
2023-09-06T06:03:39.513Z,97334.56
2023-09-06T06:06:11.642Z,97255.66
2023-09-06T06:08:38.723Z,97322.94
2023-09-06T06:11:05.515Z,97322.81
2023-09-06T06:13:32.108Z,97325.66
2023-09-06T06:15:58.691Z,97319.25
2023-09-06T06:18:27.426Z,97316.25
2023-09-06T06:20:55.853Z,97319.41
2023-09-06T06:23:22.429Z,97318.88
2023-09-06T06:25:49.325Z,97298.28
2023-09-06T06:28:16.794Z,97322.31
2023-09-06T06:30:43.957Z,97302.47
2023-09-06T06:33:10.688Z,97318.00
2023-09-06T06:35:37.698Z,97297.41
2023-09-06T06:38:04.511Z,97329.59
2023-09-06T06:40:31.479Z,97327.44
2023-09-06T06:42:58.062Z,97317.28
2023-09-06T06:45:24.645Z,97314.50
2023-09-06T06:47:51.190Z,97320.16
2023-09-06T06:50:17.828Z,97314.69
2023-09-06T06:52:47.359Z,97282.44
2023-09-06T06:55:13.977Z,97288.94
2023-09-06T06:57:40.589Z,97297.03
2023-09-06T07:00:12.331Z,97310.59
2023-09-06T07:02:39.714Z,97325.66
2023-09-06T07:05:06.706Z,97329.47
2023-09-06T07:07:33.300Z,97318.91
2023-09-06T07:09:59.895Z,97322.59
2023-09-06T07:12:26.490Z,97321.72
2023-09-06T07:14:53.202Z,97323.38
2023-09-06T07:17:19.834Z,97309.41
2023-09-06T07:19:46.542Z,97304.75
2023-09-06T07:22:13.124Z,97316.03
2023-09-06T07:24:39.645Z,97317.41
2023-09-06T07:27:06.228Z,97317.72
2023-09-06T07:29:32.994Z,97327.44
2023-09-06T07:31:59.631Z,97317.44
2023-09-06T07:34:26.784Z,97313.47
2023-09-06T07:36:53.380Z,97303.13
2023-09-06T07:39:21.685Z,97321.75
2023-09-06T07:41:48.537Z,97300.38
2023-09-06T07:44:15.189Z,97290.53
2023-09-06T07:46:42.526Z,97329.16
2023-09-06T07:49:09.158Z,97334.81
2023-09-06T07:51:35.846Z,97306.16
2023-09-06T07:54:02.295Z,97329.13
2023-09-06T07:56:29.517Z,97307.00
2023-09-06T07:58:56.558Z,97303.97
2023-09-06T08:01:23.116Z,97314.38
2023-09-06T08:03:49.703Z,97310.41
2023-09-06T08:06:16.626Z,97318.97
2023-09-06T08:08:44.693Z,97331.03
2023-09-06T08:11:11.512Z,97315.38
2023-09-06T08:13:38.685Z,97322.72
2023-09-06T08:16:06.643Z,97303.81
2023-09-06T08:18:33.886Z,97307.16
2023-09-06T08:21:02.253Z,97332.06
2023-09-06T08:23:29.176Z,97338.47
2023-09-06T08:25:57.288Z,97316.09
2023-09-06T08:28:23.839Z,97325.41
2023-09-06T08:30:51.194Z,97335.75
2023-09-06T08:33:18.160Z,97328.41
2023-09-06T08:35:44.994Z,97310.75
2023-09-06T08:38:26.635Z,97300.13
2023-09-06T08:40:53.226Z,97298.97
2023-09-06T08:43:20.445Z,97322.31
2023-09-06T08:45:49.530Z,97306.03
2023-09-06T08:48:16.920Z,97290.94
2023-09-06T08:50:46.729Z,97312.25
2023-09-06T08:53:16.116Z,97324.50
2023-09-06T08:55:46.207Z,97297.97
2023-09-06T08:58:13.689Z,97314.44
2023-09-06T09:00:40.807Z,97288.69
2023-09-06T09:03:07.720Z,97295.00
2023-09-06T09:05:34.650Z,97304.31
2023-09-06T09:08:02.360Z,97308.09
2023-09-06T09:10:33.304Z,97324.59
2023-09-06T09:13:01.338Z,97321.59
2023-09-06T09:15:31.246Z,97305.41
2023-09-06T09:18:01.629Z,97293.44
2023-09-06T09:20:31.831Z,97336.91
2023-09-06T09:23:04.454Z,97295.41
2023-09-06T09:25:33.627Z,97330.88
2023-09-06T09:28:00.826Z,97330.53
2023-09-06T09:30:32.569Z,97325.03
2023-09-06T09:33:02.671Z,97331.28
2023-09-06T09:35:32.483Z,97280.25
2023-09-06T09:38:00.982Z,97319.69
2023-09-06T09:40:46.064Z,97328.97
2023-09-06T09:43:18.702Z,97327.81
2023-09-06T09:45:47.157Z,97318.81
2023-09-06T09:48:16.684Z,97323.09
2023-09-06T09:50:45.258Z,97277.63
2023-09-06T09:55:48.573Z,97314.84
2023-09-06T09:58:17.075Z,97310.75
2023-09-06T10:00:44.167Z,97270.44
2023-09-06T10:03:11.459Z,97277.69
2023-09-06T10:05:39.341Z,97304.09
2023-09-06T10:08:10.379Z,97296.22
2023-09-06T10:10:41.541Z,97286.53
2023-09-06T10:13:11.574Z,97301.50
2023-09-06T10:15:39.155Z,97295.69
2023-09-06T10:18:07.706Z,97288.97
2023-09-06T10:20:36.665Z,97284.09
2023-09-06T10:23:07.045Z,97281.44
2023-09-06T10:25:41.026Z,97307.88
2023-09-06T10:28:08.866Z,97291.16
2023-09-06T10:30:48.155Z,97289.16
2023-09-06T10:33:30.106Z,97294.06
2023-09-06T10:36:04.686Z,97299.13
2023-09-06T10:38:36.685Z,97274.03
2023-09-06T10:41:03.187Z,97291.91
2023-09-06T10:43:43.041Z,97294.91
2023-09-06T10:46:09.649Z,97289.59
2023-09-06T10:48:36.605Z,97290.44
2023-09-06T10:51:14.223Z,97279.16
2023-09-06T10:53:48.525Z,97272.78
2023-09-06T10:56:27.463Z,97278.75
2023-09-06T10:58:57.558Z,97265.81
2023-09-06T11:01:24.113Z,97283.19
2023-09-06T11:03:53.633Z,97255.94
2023-09-06T11:06:20.312Z,97281.94
2023-09-06T11:08:48.342Z,97278.56
2023-09-06T11:11:15.508Z,97242.09
2023-09-06T11:13:45.945Z,97272.19
2023-09-06T11:16:17.247Z,97272.22
2023-09-06T11:18:48.471Z,97260.28
2023-09-06T11:21:24.047Z,97266.34
2023-09-06T11:23:52.677Z,97260.31
2023-09-06T11:26:20.382Z,97247.97
2023-09-06T11:28:50.262Z,97245.41
2023-09-06T11:31:26.437Z,97260.22
2023-09-06T11:33:57.122Z,97257.41
2023-09-06T11:36:29.580Z,97243.31
2023-09-06T11:38:58.671Z,97238.06
2023-09-06T11:41:25.777Z,97251.47
2023-09-06T11:43:57.403Z,97250.47
2023-09-06T11:46:25.833Z,97224.47
2023-09-06T11:48:54.447Z,97247.94
2023-09-06T11:51:23.351Z,97237.84
2023-09-06T11:53:55.375Z,97215.13
2023-09-06T11:56:31.741Z,97235.75
2023-09-06T11:59:01.007Z,97221.00
2023-09-06T12:01:28.204Z,97231.94
2023-09-06T12:03:57.992Z,97236.03
2023-09-06T12:06:27.175Z,97222.28
2023-09-06T12:08:53.971Z,97227.66
2023-09-06T12:11:22.973Z,97236.31
2023-09-06T12:13:49.812Z,97236.44
2023-09-06T12:16:17.291Z,97215.84
2023-09-06T12:18:45.759Z,97230.28
2023-09-06T12:21:12.760Z,97223.63
2023-09-06T12:23:39.420Z,97212.28
2023-09-06T12:26:06.766Z,97214.19
2023-09-06T12:28:33.938Z,97213.31
2023-09-06T12:31:09.874Z,97199.91
2023-09-06T12:33:39.311Z,97219.91
2023-09-06T12:36:07.093Z,97214.19
2023-09-06T12:38:33.816Z,97182.91
2023-09-06T12:41:01.932Z,97212.13
2023-09-06T12:43:30.416Z,97194.63
2023-09-06T12:45:58.518Z,97221.38
2023-09-06T12:48:26.098Z,97212.59
2023-09-06T12:50:54.843Z,97209.13
2023-09-06T12:53:23.998Z,97220.72
2023-09-06T12:55:50.511Z,97219.75
2023-09-06T12:58:17.102Z,97206.22
2023-09-06T13:00:43.578Z,97204.97
2023-09-06T13:03:10.410Z,97220.22
2023-09-06T13:05:40.990Z,97193.47
2023-09-06T13:08:08.006Z,97180.38
2023-09-06T13:10:34.525Z,97180.28
2023-09-06T13:13:01.150Z,97192.28
2023-09-06T13:15:27.661Z,97199.34
2023-09-06T13:17:54.260Z,97178.16
2023-09-06T13:20:20.818Z,97197.19
2023-09-06T13:22:47.318Z,97190.66
2023-09-06T13:25:14.177Z,97186.97
2023-09-06T13:27:40.926Z,97164.38
2023-09-06T13:30:07.996Z,97147.72
2023-09-06T13:32:35.083Z,97191.78
2023-09-06T13:35:02.348Z,97156.13
2023-09-06T13:37:28.936Z,97165.22
2023-09-06T13:39:55.459Z,97184.78
2023-09-06T13:42:22.098Z,97179.59
2023-09-06T13:44:48.612Z,97159.94
2023-09-06T13:47:17.380Z,97156.53
2023-09-06T13:49:44.331Z,97157.91
2023-09-06T13:52:12.816Z,97169.88
2023-09-06T13:54:40.650Z,97146.38
2023-09-06T13:57:08.349Z,97163.50
2023-09-06T13:59:35.033Z,97152.91
2023-09-06T14:02:01.642Z,97147.31
2023-09-06T14:04:28.353Z,97147.16
2023-09-06T14:06:55.625Z,97155.53
2023-09-06T14:09:23.835Z,97153.44
2023-09-06T14:11:50.884Z,97153.19
2023-09-06T14:14:18.294Z,97149.16
2023-09-06T14:16:46.051Z,97166.16
2023-09-06T14:19:12.854Z,97159.84
2023-09-06T14:21:46.353Z,97151.53
2023-09-06T14:24:17.093Z,97164.91
2023-09-06T14:26:44.533Z,97162.69
2023-09-06T14:29:15.344Z,97155.34
2023-09-06T14:31:42.297Z,97133.66
2023-09-06T14:34:09.123Z,97118.59
2023-09-06T14:36:36.127Z,97141.09
2023-09-06T14:39:05.064Z,97158.66
2023-09-06T14:41:33.931Z,97118.56
2023-09-06T14:44:00.612Z,97133.69
2023-09-06T14:46:27.251Z,97133.56
2023-09-06T14:48:54.111Z,97159.44
2023-09-06T14:51:20.693Z,97141.78
2023-09-06T14:53:47.355Z,97153.44
2023-09-06T14:56:16.190Z,97149.22
2023-09-06T14:58:43.225Z,97147.16
2023-09-06T15:01:09.931Z,97159.66
2023-09-06T15:03:36.685Z,97138.50
2023-09-06T15:06:06.535Z,97157.66
2023-09-06T15:08:33.445Z,97160.34
2023-09-06T15:11:00.264Z,97159.53
2023-09-06T15:13:27.297Z,97154.50
2023-09-06T15:15:54.048Z,97138.47
2023-09-06T15:18:20.703Z,97138.75
2023-09-06T15:20:47.781Z,97136.47
2023-09-06T15:23:15.223Z,97150.00
2023-09-06T15:25:42.107Z,97121.25
2023-09-06T15:28:08.878Z,97140.44
2023-09-06T15:30:35.852Z,97140.44
2023-09-06T15:33:03.365Z,97141.34
2023-09-06T15:35:30.192Z,97136.03
2023-09-06T15:38:12.913Z,97141.63
2023-09-06T15:40:39.879Z,97130.16
2023-09-06T15:43:06.795Z,97112.09
2023-09-06T15:45:33.906Z,97146.81
2023-09-06T15:48:00.918Z,97141.22
2023-09-06T15:50:29.412Z,97122.72
2023-09-06T15:52:56.483Z,97149.84
2023-09-06T15:55:23.869Z,97149.63
2023-09-06T15:57:51.232Z,97127.53
2023-09-06T16:00:30.739Z,97152.97
2023-09-06T16:02:59.156Z,97125.81
2023-09-06T16:05:26.499Z,97134.41
2023-09-06T16:07:54.545Z,97134.56
2023-09-06T16:10:21.360Z,97129.34
2023-09-06T16:12:49.837Z,97135.03
2023-09-06T16:15:17.709Z,97133.94
2023-09-06T16:17:46.043Z,97126.34
2023-09-06T16:20:13.135Z,97145.59
2023-09-06T16:22:39.706Z,97127.16
2023-09-06T16:25:08.695Z,97127.16
2023-09-06T16:27:35.575Z,97115.16
2023-09-06T16:30:06.715Z,97136.31
2023-09-06T16:32:33.818Z,97139.13
2023-09-06T16:35:01.144Z,97138.09
2023-09-06T16:37:27.669Z,97134.50
2023-09-06T16:39:54.343Z,97121.63
2023-09-06T16:42:22.287Z,97135.47
2023-09-06T16:44:48.870Z,97114.66
2023-09-06T16:47:15.469Z,97136.91
2023-09-06T16:49:48.174Z,97120.66
2023-09-06T16:52:15.398Z,97126.09
2023-09-06T16:54:42.013Z,97119.94
2023-09-06T16:57:08.526Z,97147.00
2023-09-06T16:59:35.104Z,97110.75
2023-09-06T17:02:01.662Z,97140.88
2023-09-06T17:04:28.225Z,97151.72
2023-09-06T17:06:54.828Z,97136.66
2023-09-06T17:09:21.321Z,97124.34
2023-09-06T17:11:47.751Z,97146.50
2023-09-06T17:14:14.292Z,97135.75
2023-09-06T17:16:40.973Z,97153.00
2023-09-06T17:19:10.450Z,97143.50
2023-09-06T17:21:40.064Z,97137.44
2023-09-06T17:24:09.362Z,97111.13
2023-09-06T17:26:40.907Z,97093.09
2023-09-06T17:29:07.601Z,97139.25
2023-09-06T17:31:37.694Z,97150.25
2023-09-06T17:34:04.464Z,97141.22
2023-09-06T17:36:30.926Z,97155.47
2023-09-06T17:38:57.575Z,97140.09
2023-09-06T17:41:24.609Z,97136.44
2023-09-06T17:43:52.199Z,97131.47
2023-09-06T17:46:25.284Z,97142.25
2023-09-06T17:48:54.218Z,97152.59
2023-09-06T17:51:21.464Z,97153.31
2023-09-06T17:53:48.712Z,97134.88
2023-09-06T17:56:17.510Z,97111.44
2023-09-06T17:58:45.819Z,97122.09
2023-09-06T18:01:15.151Z,97144.31
2023-09-06T18:03:44.768Z,97168.81
2023-09-06T18:06:14.780Z,97170.69
2023-09-06T18:08:43.302Z,97135.03
2023-09-06T18:11:10.602Z,97165.72
2023-09-06T18:13:41.489Z,97165.16
2023-09-06T18:16:12.129Z,97140.03
2023-09-06T18:18:39.330Z,97165.97
2023-09-06T18:21:10.235Z,97195.00
2023-09-06T18:23:40.862Z,97189.22
2023-09-06T18:26:11.668Z,97192.34
2023-09-06T18:28:38.399Z,97175.00
2023-09-06T18:31:05.568Z,97208.69
2023-09-06T18:33:32.359Z,97203.94
2023-09-06T18:35:58.964Z,97164.53
2023-09-06T18:38:27.930Z,97203.25
2023-09-06T18:40:57.376Z,97157.19
2023-09-06T18:43:24.337Z,97206.81
2023-09-06T18:45:51.773Z,97192.78
2023-09-06T18:48:21.246Z,97113.03
2023-09-06T18:50:48.974Z,97111.44
2023-09-06T18:53:15.529Z,97186.97
2023-09-06T18:55:45.575Z,97126.91
2023-09-06T18:58:12.716Z,97182.28
2023-09-06T19:00:42.775Z,97216.56
2023-09-06T19:03:13.866Z,97218.75
2023-09-06T19:05:42.310Z,97201.56
2023-09-06T19:08:15.367Z,97214.31
2023-09-06T19:10:43.258Z,97202.94
2023-09-06T19:13:11.470Z,97210.41
2023-09-06T19:15:38.432Z,97194.81
2023-09-06T19:18:07.175Z,97196.44
2023-09-06T19:20:34.196Z,97208.06
2023-09-06T19:23:00.797Z,97201.44
2023-09-06T19:25:28.535Z,97193.84
2023-09-06T19:27:55.538Z,97179.53
2023-09-06T19:30:22.388Z,97191.44
2023-09-06T19:32:49.166Z,97196.81
2023-09-06T19:35:15.914Z,97209.53
2023-09-06T19:37:42.462Z,97221.44
2023-09-06T19:40:09.484Z,97219.59
2023-09-06T19:42:36.410Z,97212.69
2023-09-06T19:45:03.271Z,97151.75
2023-09-06T19:47:29.931Z,97196.88
2023-09-06T19:49:57.126Z,97187.34
2023-09-06T19:52:23.957Z,97155.22
2023-09-06T19:54:50.611Z,97187.88
2023-09-06T19:57:18.176Z,97214.09
2023-09-06T19:59:44.756Z,97157.59
2023-09-06T20:02:11.538Z,97205.09
2023-09-06T20:04:38.488Z,97194.75
2023-09-06T20:07:05.550Z,97207.25
2023-09-06T20:09:32.342Z,97200.03
2023-09-06T20:11:59.138Z,97171.94
2023-09-06T20:14:28.873Z,97171.41
2023-09-06T20:16:58.736Z,97177.78
2023-09-06T20:19:25.528Z,97157.09
2023-09-06T20:21:52.042Z,97159.47
2023-09-06T20:24:18.554Z,97201.66
2023-09-06T20:26:45.255Z,97189.19
2023-09-06T20:29:11.943Z,97118.38
2023-09-06T20:31:38.778Z,97169.81
2023-09-06T20:34:05.526Z,97183.34
2023-09-06T20:36:33.749Z,97203.22
2023-09-06T20:39:00.561Z,97201.09
2023-09-06T20:41:27.225Z,97177.78
2023-09-06T20:43:53.842Z,97148.59
2023-09-06T20:46:20.416Z,97210.91
2023-09-06T20:48:47.399Z,97190.75
2023-09-06T20:51:17.060Z,97152.81
2023-09-06T20:53:44.542Z,97193.41
2023-09-06T20:56:11.869Z,97202.13
2023-09-06T20:58:38.957Z,97193.38
2023-09-06T21:01:16.496Z,97206.16
2023-09-06T21:03:43.316Z,97179.06
2023-09-06T21:06:12.059Z,97195.78
2023-09-06T21:08:39.208Z,97144.78
2023-09-06T21:11:06.205Z,97210.06
2023-09-06T21:13:34.118Z,97148.16
2023-09-06T21:16:05.890Z,97185.53
2023-09-06T21:18:33.184Z,97083.94
2023-09-06T21:21:00.233Z,97202.28
2023-09-06T21:23:26.952Z,97199.88
2023-09-06T21:25:53.489Z,97221.88
2023-09-06T21:28:20.150Z,97221.09
2023-09-06T21:30:48.121Z,97230.63
2023-09-06T21:33:14.941Z,97236.97
2023-09-06T21:35:43.555Z,97207.22
2023-09-06T21:38:11.393Z,97236.94
2023-09-06T21:40:42.790Z,97217.00
2023-09-06T21:43:17.746Z,97228.13
2023-09-06T21:45:46.283Z,97244.91
2023-09-06T21:48:13.726Z,97238.72
2023-09-06T21:50:42.232Z,97211.09
2023-09-06T21:53:09.563Z,97234.72
2023-09-06T21:55:36.379Z,97142.81
2023-09-06T21:58:10.640Z,97212.69
2023-09-06T22:18:05.400Z,97246.25
2023-09-06T22:20:34.485Z,97258.06
2023-09-06T22:23:01.590Z,97247.78
2023-09-06T22:25:28.677Z,97249.41
2023-09-06T22:27:58.298Z,97256.34
2023-09-06T22:30:25.149Z,97255.84
2023-09-06T22:32:51.725Z,97250.53
2023-09-06T22:35:18.282Z,97253.69
2023-09-06T22:37:44.748Z,97256.88
2023-09-06T22:40:11.944Z,97251.31
2023-09-06T22:42:38.561Z,97247.09
2023-09-06T22:45:05.703Z,97252.66
2023-09-06T22:47:32.394Z,97261.66
2023-09-06T22:49:59.070Z,97256.91
2023-09-06T22:52:25.685Z,97260.84
2023-09-06T22:54:52.461Z,97258.47
2023-09-06T22:57:19.158Z,97254.47
2023-09-06T22:59:45.745Z,97257.69
2023-09-06T23:02:12.247Z,97260.78
2023-09-06T23:04:40.510Z,97261.34
2023-09-06T23:07:07.879Z,97252.50
2023-09-06T23:09:34.577Z,97262.59
2023-09-06T23:12:02.451Z,97258.84
2023-09-06T23:14:29.153Z,97217.59
2023-09-06T23:16:55.884Z,97257.00
2023-09-06T23:19:28.401Z,97254.09
2023-09-06T23:21:59.428Z,97252.78
2023-09-06T23:24:28.778Z,97233.34
2023-09-06T23:27:00.313Z,97251.72
2023-09-06T23:29:35.854Z,97251.72
2023-09-06T23:32:05.977Z,97250.88
2023-09-06T23:34:35.344Z,97249.31
2023-09-06T23:37:05.391Z,97253.19
2023-09-06T23:39:34.477Z,97238.28
2023-09-06T23:42:10.761Z,97250.00
2023-09-06T23:44:42.011Z,97249.47
2023-09-06T23:47:10.944Z,97248.91
2023-09-06T23:49:38.259Z,97224.41
2023-09-06T23:52:05.499Z,97251.56
2023-09-06T23:54:44.792Z,97250.47
2023-09-06T23:57:14.237Z,97231.88
2023-09-06T23:59:40.745Z,97250.44
